Kanab, UT

1:30 AM MDT on August 28, 2014 (GMT -0600)
Page Municipal | Change Station
CLOSE
Current Station
Airport
Location: Page,
Elevation: 4308 ft
Nearby Weather Stations

Elev 4308 ft 36.92 °N, 111.45 °W | Updated 37 minutes ago

Clear
Clear
70 °F
Feels Like 70 °F
N
5
Wind Variable Wind from NW

Today
High -- | Low -- °F
--% Chance of Precip.
Yesterday
High -- | Low -- °F
Precip. -- in
6:55 AM 8:02 PM
Waxing Crescent, 7% visible
Pressure 30.03 in
Visibility 10.0 miles
Clouds Clear
Dew Point 51 °F
Humidity 51%
Rainfall 0.00 in
Snow Depth Not available.
UV 0 out of 12
Pollen 6.10 out of 12
Air Quality Not available.
Flu Activity Not available.
METAR KPGA 280653Z AUTO 31004KT 10SM CLR 21/11 A3019 RMK AO2 SLP168 T02110106 402890144

More Conditions Fewer Conditions

Pressure 30.03 in
Visibility 10.0 miles
Clouds Clear
Dew Point 51 °F
Humidity 51%
Rainfall 0.00 in
Snow Depth Not available.
UV 0 out of 12
Pollen 6.10 out of 12
Air Quality Not available.
Flu Activity Not available.
METAR KPGA 280653Z AUTO 31004KT 10SM CLR 21/11 A3019 RMK AO2 SLP168 T02110106 402890144

More Conditions Fewer Conditions

10-Day Weather Forecast

Almanac

Astronomy

Aug. 28, 2014 Rise Set
Actual Time 6:55 AM MDT 8:02 PM MDT
Civil Twilight 6:29 AM MDT 8:29 PM MDT
Nautical Twilight 5:57 AM MDT 9:01 PM MDT
Astronomical Twilight 5:23 AM MDT 9:34 PM MDT
Moon 9:46 AM MDT 9:34 PM MDT
Length of Visible Light 14h 00m
Length of Day
13h 06m
Tomorrow will be 2m 15s shorter.
Waxing Crescent, 7% of the Moon is Illuminated
Today
Waxing Crescent
Sep 2
First Quarter
Sep 8
Full
Sep 15
Last Quarter
Sep 24
New

Today's Extremes

State Highs State Lows

Community

WunderPhotos

Upload Photos

1,747,912 photos uploaded!

Nearby

Snow Depth

Station Depth Elevation
Agua Canyon 4 in 8900 ft
Long Valley Jct 0 in 7360 ft
Harris Flat 0 in 7800 ft
Webster Flat 0 in 9200 ft
Clayton Springs 0 in 10000 ft

Earthquake Activity

City Distance Mag. Time & Date
No recent earthquake activity has been reported nearby.
Minimum magnitude displayed is 2.5.

Coastal Water Temperatures

Place Temperature
No Stations Reporting

Nearby Weather Stations